66R

Robert R Wells Jr Airport

Columbus, Texas, USA
METAR K66R 190835Z AUTO 04004KT 10SM SCT030 BKN035 18/15 A3015 RMK AO2 T01800146
Observed Flight Rules
Oct-19 @ 08:35 UTC (30 minutes ago) Visual Flight Rules
Wind Visibility Clouds
40° at 4 knots 10 miles
  • Scattered at 3,000' AGL
  • Broken at 3,500' AGL
Temperatures Readings
Current 18°C / 64°F
Dewpoint 15°C / 59°F
Humidity 83%
Altimeter 30.15" Hg
Pressure 1021 hPa
Elevation 74
METAR K66R 190835Z AUTO 04004KT 10SM SCT030 BKN035 18/15 A3015 RMK AO2 T01800146
Observed Flight Rules
Oct-19 @ 08:35 UTC
(30 minutes ago)
VFR
Wind Visibility
40° at 4 knots 10 miles
Clouds
  • Scattered at 3,000' AGL
  • Broken at 3,500' AGL
Temperature Dewpoint
18°C / 64°F 15°C / 59°F
Humidity Altimeter Pressure
83% 30.15" Hg 1021 hPa